sensor_id;sensor_type;location;lat;lon;timestamp;P1;durP1;ratioP1;P2;durP2;ratioP2
71164;SDS011;58859;55.132;-1.586;2024-02-28T00:01:29;9.97;;;2.07;;
71164;SDS011;58859;55.132;-1.586;2024-02-28T00:03:54;8.87;;;1.93;;
71164;SDS011;58859;55.132;-1.586;2024-02-28T00:06:20;8.07;;;1.97;;
71164;SDS011;58859;55.132;-1.586;2024-02-28T00:08:46;11.10;;;2.20;;
71164;SDS011;58859;55.132;-1.586;2024-02-28T00:11:11;7.73;;;2.20;;
71164;SDS011;58859;55.132;-1.586;2024-02-28T00:13:36;10.67;;;2.47;;
71164;SDS011;58859;55.132;-1.586;2024-02-28T00:16:02;8.95;;;2.35;;
71164;SDS011;58859;55.132;-1.586;2024-02-28T00:18:28;6.03;;;1.80;;
71164;SDS011;58859;55.132;-1.586;2024-02-28T00:20:55;7.55;;;1.67;;
71164;SDS011;58859;55.132;-1.586;2024-02-28T00:23:20;3.97;;;1.53;;
71164;SDS011;58859;55.132;-1.586;2024-02-28T00:25:46;9.52;;;1.92;;
71164;SDS011;58859;55.132;-1.586;2024-02-28T00:28:11;10.20;;;1.53;;
71164;SDS011;58859;55.132;-1.586;2024-02-28T00:30:37;5.10;;;1.30;;
71164;SDS011;58859;55.132;-1.586;2024-02-28T00:33:02;9.75;;;2.00;;
71164;SDS011;58859;55.132;-1.586;2024-02-28T00:35:30;5.87;;;1.80;;
71164;SDS011;58859;55.132;-1.586;2024-02-28T00:37:58;7.68;;;1.85;;
71164;SDS011;58859;55.132;-1.586;2024-02-28T00:40:23;8.03;;;1.83;;
71164;SDS011;58859;55.132;-1.586;2024-02-28T00:42:50;8.65;;;1.75;;
71164;SDS011;58859;55.132;-1.586;2024-02-28T00:45:16;8.47;;;2.27;;
71164;SDS011;58859;55.132;-1.586;2024-02-28T00:47:41;8.80;;;1.77;;
71164;SDS011;58859;55.132;-1.586;2024-02-28T00:50:07;6.95;;;2.10;;
71164;SDS011;58859;55.132;-1.586;2024-02-28T00:52:33;7.47;;;1.90;;
71164;SDS011;58859;55.132;-1.586;2024-02-28T00:54:58;11.87;;;1.93;;
71164;SDS011;58859;55.132;-1.586;2024-02-28T00:57:24;9.73;;;2.10;;
71164;SDS011;58859;55.132;-1.586;2024-02-28T00:59:50;15.10;;;2.22;;
71164;SDS011;58859;55.132;-1.586;2024-02-28T01:02:15;6.20;;;1.90;;
71164;SDS011;58859;55.132;-1.586;2024-02-28T01:04:41;7.27;;;2.00;;
71164;SDS011;58859;55.132;-1.586;2024-02-28T01:07:07;4.10;;;2.08;;
71164;SDS011;58859;55.132;-1.586;2024-02-28T01:09:32;10.27;;;1.80;;
71164;SDS011;58859;55.132;-1.586;2024-02-28T01:11:58;7.70;;;2.60;;
71164;SDS011;58859;55.132;-1.586;2024-02-28T01:14:23;10.30;;;2.15;;
71164;SDS011;58859;55.132;-1.586;2024-02-28T01:16:48;23.43;;;2.53;;
71164;SDS011;58859;55.132;-1.586;2024-02-28T01:19:15;13.33;;;2.17;;
71164;SDS011;58859;55.132;-1.586;2024-02-28T01:21:41;10.88;;;2.80;;
71164;SDS011;58859;55.132;-1.586;2024-02-28T01:24:06;7.20;;;1.90;;
71164;SDS011;58859;55.132;-1.586;2024-02-28T01:26:32;8.63;;;2.28;;
71164;SDS011;58859;55.132;-1.586;2024-02-28T01:28:57;11.00;;;1.90;;
71164;SDS011;58859;55.132;-1.586;2024-02-28T01:31:22;7.87;;;1.97;;
71164;SDS011;58859;55.132;-1.586;2024-02-28T01:33:48;9.10;;;1.73;;
71164;SDS011;58859;55.132;-1.586;2024-02-28T01:36:13;12.07;;;2.13;;
71164;SDS011;58859;55.132;-1.586;2024-02-28T01:38:39;10.70;;;2.47;;
71164;SDS011;58859;55.132;-1.586;2024-02-28T01:41:04;5.27;;;2.13;;
71164;SDS011;58859;55.132;-1.586;2024-02-28T01:43:30;10.48;;;2.33;;
71164;SDS011;58859;55.132;-1.586;2024-02-28T01:45:56;9.93;;;2.03;;
71164;SDS011;58859;55.132;-1.586;2024-02-28T01:48:26;12.38;;;2.28;;
71164;SDS011;58859;55.132;-1.586;2024-02-28T01:50:51;8.57;;;1.63;;
71164;SDS011;58859;55.132;-1.586;2024-02-28T01:53:16;12.82;;;2.00;;
71164;SDS011;58859;55.132;-1.586;2024-02-28T01:55:42;10.43;;;1.97;;
71164;SDS011;58859;55.132;-1.586;2024-02-28T01:58:07;7.13;;;2.10;;
71164;SDS011;58859;55.132;-1.586;2024-02-28T02:00:33;11.17;;;2.43;;
71164;SDS011;58859;55.132;-1.586;2024-02-28T02:03:00;8.85;;;2.55;;
71164;SDS011;58859;55.132;-1.586;2024-02-28T02:05:26;5.97;;;1.63;;
71164;SDS011;58859;55.132;-1.586;2024-02-28T02:07:51;6.37;;;1.67;;
71164;SDS011;58859;55.132;-1.586;2024-02-28T02:10:17;11.70;;;2.33;;
71164;SDS011;58859;55.132;-1.586;2024-02-28T02:12:43;9.98;;;2.33;;
71164;SDS011;58859;55.132;-1.586;2024-02-28T02:15:08;8.07;;;2.90;;
71164;SDS011;58859;55.132;-1.586;2024-02-28T02:17:34;9.10;;;2.75;;
71164;SDS011;58859;55.132;-1.586;2024-02-28T02:19:59;11.23;;;2.27;;
71164;SDS011;58859;55.132;-1.586;2024-02-28T02:22:27;7.18;;;2.00;;
71164;SDS011;58859;55.132;-1.586;2024-02-28T02:24:56;7.10;;;1.70;;
71164;SDS011;58859;55.132;-1.586;2024-02-28T02:27:23;11.18;;;3.03;;
71164;SDS011;58859;55.132;-1.586;2024-02-28T02:29:50;10.10;;;2.42;;
71164;SDS011;58859;55.132;-1.586;2024-02-28T02:32:15;12.10;;;2.87;;
71164;SDS011;58859;55.132;-1.586;2024-02-28T02:34:40;10.93;;;2.10;;
71164;SDS011;58859;55.132;-1.586;2024-02-28T02:37:06;6.22;;;2.10;;
71164;SDS011;58859;55.132;-1.586;2024-02-28T02:39:33;12.93;;;3.00;;
71164;SDS011;58859;55.132;-1.586;2024-02-28T02:41:59;10.40;;;2.38;;
71164;SDS011;58859;55.132;-1.586;2024-02-28T02:44:24;11.17;;;2.77;;
71164;SDS011;58859;55.132;-1.586;2024-02-28T02:46:50;7.57;;;1.93;;
71164;SDS011;58859;55.132;-1.586;2024-02-28T02:49:15;13.67;;;2.40;;
71164;SDS011;58859;55.132;-1.586;2024-02-28T02:51:43;8.95;;;1.67;;
71164;SDS011;58859;55.132;-1.586;2024-02-28T02:54:08;10.73;;;2.87;;
71164;SDS011;58859;55.132;-1.586;2024-02-28T02:56:34;14.32;;;2.03;;
71164;SDS011;58859;55.132;-1.586;2024-02-28T02:58:59;12.40;;;2.37;;
71164;SDS011;58859;55.132;-1.586;2024-02-28T03:01:24;9.47;;;2.37;;
71164;SDS011;58859;55.132;-1.586;2024-02-28T03:03:50;8.63;;;2.10;;
71164;SDS011;58859;55.132;-1.586;2024-02-28T03:06:15;8.45;;;2.08;;
71164;SDS011;58859;55.132;-1.586;2024-02-28T03:08:41;15.73;;;2.88;;
71164;SDS011;58859;55.132;-1.586;2024-02-28T03:11:06;9.23;;;1.80;;
71164;SDS011;58859;55.132;-1.586;2024-02-28T03:13:33;17.52;;;2.60;;
71164;SDS011;58859;55.132;-1.586;2024-02-28T03:15:59;9.77;;;2.20;;
71164;SDS011;58859;55.132;-1.586;2024-02-28T03:18:24;8.60;;;2.55;;
71164;SDS011;58859;55.132;-1.586;2024-02-28T03:20:50;13.70;;;2.63;;
71164;SDS011;58859;55.132;-1.586;2024-02-28T03:23:15;8.63;;;2.40;;
71164;SDS011;58859;55.132;-1.586;2024-02-28T03:25:40;13.97;;;2.73;;
71164;SDS011;58859;55.132;-1.586;2024-02-28T03:28:06;13.73;;;3.17;;
71164;SDS011;58859;55.132;-1.586;2024-02-28T03:30:31;13.45;;;2.55;;
71164;SDS011;58859;55.132;-1.586;2024-02-28T03:32:57;14.67;;;2.47;;
71164;SDS011;58859;55.132;-1.586;2024-02-28T03:35:22;12.03;;;2.73;;
71164;SDS011;58859;55.132;-1.586;2024-02-28T03:37:47;11.40;;;2.17;;
71164;SDS011;58859;55.132;-1.586;2024-02-28T03:40:13;18.57;;;3.20;;
71164;SDS011;58859;55.132;-1.586;2024-02-28T03:42:39;14.68;;;3.75;;
71164;SDS011;58859;55.132;-1.586;2024-02-28T03:45:05;11.80;;;2.53;;
71164;SDS011;58859;55.132;-1.586;2024-02-28T03:47:31;19.10;;;2.90;;
71164;SDS011;58859;55.132;-1.586;2024-02-28T03:49:56;15.13;;;2.50;;
71164;SDS011;58859;55.132;-1.586;2024-02-28T03:52:22;10.73;;;2.80;;
71164;SDS011;58859;55.132;-1.586;2024-02-28T03:54:48;12.85;;;2.58;;
71164;SDS011;58859;55.132;-1.586;2024-02-28T03:57:14;12.03;;;2.33;;
71164;SDS011;58859;55.132;-1.586;2024-02-28T03:59:40;17.80;;;2.60;;
71164;SDS011;58859;55.132;-1.586;2024-02-28T04:02:06;15.18;;;2.70;;
71164;SDS011;58859;55.132;-1.586;2024-02-28T04:04:31;14.33;;;2.57;;
71164;SDS011;58859;55.132;-1.586;2024-02-28T04:06:57;16.13;;;2.90;;
71164;SDS011;58859;55.132;-1.586;2024-02-28T04:09:22;8.73;;;2.40;;
71164;SDS011;58859;55.132;-1.586;2024-02-28T04:11:47;11.73;;;2.13;;
71164;SDS011;58859;55.132;-1.586;2024-02-28T04:14:13;17.17;;;2.83;;
71164;SDS011;58859;55.132;-1.586;2024-02-28T04:16:42;12.57;;;2.15;;
71164;SDS011;58859;55.132;-1.586;2024-02-28T04:19:12;15.27;;;2.65;;
71164;SDS011;58859;55.132;-1.586;2024-02-28T04:21:37;7.70;;;1.80;;
71164;SDS011;58859;55.132;-1.586;2024-02-28T04:24:04;16.17;;;3.00;;
71164;SDS011;58859;55.132;-1.586;2024-02-28T04:26:32;11.68;;;2.55;;
71164;SDS011;58859;55.132;-1.586;2024-02-28T04:28:58;9.98;;;2.72;;
71164;SDS011;58859;55.132;-1.586;2024-02-28T04:31:24;12.20;;;3.27;;
71164;SDS011;58859;55.132;-1.586;2024-02-28T04:33:49;11.00;;;2.33;;
71164;SDS011;58859;55.132;-1.586;2024-02-28T04:36:15;9.13;;;2.30;;
71164;SDS011;58859;55.132;-1.586;2024-02-28T04:38:41;7.65;;;2.85;;
71164;SDS011;58859;55.132;-1.586;2024-02-28T04:41:06;19.23;;;2.33;;
71164;SDS011;58859;55.132;-1.586;2024-02-28T04:43:32;17.60;;;3.63;;
71164;SDS011;58859;55.132;-1.586;2024-02-28T04:45:57;9.73;;;2.13;;
71164;SDS011;58859;55.132;-1.586;2024-02-28T04:48:22;16.40;;;2.50;;
71164;SDS011;58859;55.132;-1.586;2024-02-28T04:50:48;7.80;;;2.27;;
71164;SDS011;58859;55.132;-1.586;2024-02-28T04:53:13;7.20;;;1.73;;
71164;SDS011;58859;55.132;-1.586;2024-02-28T04:55:39;9.05;;;2.28;;
71164;SDS011;58859;55.132;-1.586;2024-02-28T04:58:04;7.30;;;2.07;;
71164;SDS011;58859;55.132;-1.586;2024-02-28T05:00:29;8.13;;;1.97;;
71164;SDS011;58859;55.132;-1.586;2024-02-28T05:02:55;11.67;;;2.53;;
71164;SDS011;58859;55.132;-1.586;2024-02-28T05:05:20;6.05;;;1.67;;
71164;SDS011;58859;55.132;-1.586;2024-02-28T05:07:46;10.00;;;1.93;;
71164;SDS011;58859;55.132;-1.586;2024-02-28T05:10:11;5.70;;;1.57;;
71164;SDS011;58859;55.132;-1.586;2024-02-28T05:12:38;11.27;;;2.17;;
71164;SDS011;58859;55.132;-1.586;2024-02-28T05:15:03;7.13;;;1.80;;
71164;SDS011;58859;55.132;-1.586;2024-02-28T05:17:31;9.98;;;1.85;;
71164;SDS011;58859;55.132;-1.586;2024-02-28T05:19:56;7.50;;;2.23;;
71164;SDS011;58859;55.132;-1.586;2024-02-28T05:22:22;7.07;;;1.73;;
71164;SDS011;58859;55.132;-1.586;2024-02-28T05:24:47;6.45;;;2.00;;
71164;SDS011;58859;55.132;-1.586;2024-02-28T05:27:13;12.20;;;1.92;;
71164;SDS011;58859;55.132;-1.586;2024-02-28T05:29:38;12.80;;;1.70;;
71164;SDS011;58859;55.132;-1.586;2024-02-28T05:32:05;7.45;;;1.70;;
71164;SDS011;58859;55.132;-1.586;2024-02-28T05:34:31;8.77;;;2.50;;
71164;SDS011;58859;55.132;-1.586;2024-02-28T05:36:56;16.83;;;2.53;;
71164;SDS011;58859;55.132;-1.586;2024-02-28T05:39:22;9.02;;;1.80;;
71164;SDS011;58859;55.132;-1.586;2024-02-28T05:41:47;7.40;;;1.90;;
71164;SDS011;58859;55.132;-1.586;2024-02-28T05:44:13;6.83;;;2.03;;
71164;SDS011;58859;55.132;-1.586;2024-02-28T05:46:38;11.27;;;2.03;;
71164;SDS011;58859;55.132;-1.586;2024-02-28T05:49:03;8.10;;;1.55;;
71164;SDS011;58859;55.132;-1.586;2024-02-28T05:51:29;10.40;;;2.10;;
71164;SDS011;58859;55.132;-1.586;2024-02-28T05:53:54;10.30;;;2.47;;
71164;SDS011;58859;55.132;-1.586;2024-02-28T05:56:20;17.20;;;2.40;;
71164;SDS011;58859;55.132;-1.586;2024-02-28T05:58:46;8.60;;;2.27;;
71164;SDS011;58859;55.132;-1.586;2024-02-28T06:01:15;5.75;;;1.90;;
71164;SDS011;58859;55.132;-1.586;2024-02-28T06:03:42;13.23;;;3.20;;
71164;SDS011;58859;55.132;-1.586;2024-02-28T06:06:09;14.02;;;1.95;;
71164;SDS011;58859;55.132;-1.586;2024-02-28T06:08:37;10.77;;;2.50;;
71164;SDS011;58859;55.132;-1.586;2024-02-28T06:11:03;7.85;;;1.58;;
71164;SDS011;58859;55.132;-1.586;2024-02-28T06:13:30;9.85;;;2.08;;
71164;SDS011;58859;55.132;-1.586;2024-02-28T06:15:56;10.83;;;2.07;;
71164;SDS011;58859;55.132;-1.586;2024-02-28T06:18:22;9.88;;;1.73;;
71164;SDS011;58859;55.132;-1.586;2024-02-28T06:20:49;7.72;;;1.67;;
71164;SDS011;58859;55.132;-1.586;2024-02-28T06:23:14;6.03;;;1.73;;
71164;SDS011;58859;55.132;-1.586;2024-02-28T06:25:40;3.23;;;1.07;;
71164;SDS011;58859;55.132;-1.586;2024-02-28T06:28:05;7.80;;;1.60;;
71164;SDS011;58859;55.132;-1.586;2024-02-28T06:30:32;10.27;;;1.80;;
71164;SDS011;58859;55.132;-1.586;2024-02-28T06:33:00;6.70;;;2.60;;
71164;SDS011;58859;55.132;-1.586;2024-02-28T06:35:26;5.45;;;2.20;;
71164;SDS011;58859;55.132;-1.586;2024-02-28T06:37:52;7.90;;;2.38;;
71164;SDS011;58859;55.132;-1.586;2024-02-28T06:40:18;8.40;;;2.17;;
71164;SDS011;58859;55.132;-1.586;2024-02-28T06:42:43;11.67;;;2.10;;
71164;SDS011;58859;55.132;-1.586;2024-02-28T06:45:09;12.43;;;2.60;;
71164;SDS011;58859;55.132;-1.586;2024-02-28T06:47:34;6.73;;;2.60;;
71164;SDS011;58859;55.132;-1.586;2024-02-28T06:50:02;7.60;;;1.90;;
71164;SDS011;58859;55.132;-1.586;2024-02-28T06:52:28;12.98;;;3.03;;
71164;SDS011;58859;55.132;-1.586;2024-02-28T06:54:53;8.53;;;1.63;;
71164;SDS011;58859;55.132;-1.586;2024-02-28T06:57:19;8.77;;;1.67;;
71164;SDS011;58859;55.132;-1.586;2024-02-28T06:59:44;11.17;;;2.37;;
71164;SDS011;58859;55.132;-1.586;2024-02-28T07:02:10;12.55;;;2.55;;
71164;SDS011;58859;55.132;-1.586;2024-02-28T07:04:35;11.93;;;2.50;;
71164;SDS011;58859;55.132;-1.586;2024-02-28T07:07:03;10.07;;;2.47;;
71164;SDS011;58859;55.132;-1.586;2024-02-28T07:09:28;13.67;;;2.23;;
71164;SDS011;58859;55.132;-1.586;2024-02-28T07:11:57;9.63;;;1.80;;
71164;SDS011;58859;55.132;-1.586;2024-02-28T07:14:23;10.05;;;2.40;;
71164;SDS011;58859;55.132;-1.586;2024-02-28T07:16:49;12.60;;;2.73;;
71164;SDS011;58859;55.132;-1.586;2024-02-28T07:19:14;9.80;;;2.33;;
71164;SDS011;58859;55.132;-1.586;2024-02-28T07:21:40;5.90;;;2.23;;
71164;SDS011;58859;55.132;-1.586;2024-02-28T07:24:06;10.93;;;2.15;;
71164;SDS011;58859;55.132;-1.586;2024-02-28T07:26:31;10.50;;;2.28;;
71164;SDS011;58859;55.132;-1.586;2024-02-28T07:28:57;8.48;;;2.40;;
71164;SDS011;58859;55.132;-1.586;2024-02-28T07:31:22;16.33;;;2.23;;
71164;SDS011;58859;55.132;-1.586;2024-02-28T07:33:48;12.03;;;2.50;;
71164;SDS011;58859;55.132;-1.586;2024-02-28T07:36:13;10.95;;;2.22;;
71164;SDS011;58859;55.132;-1.586;2024-02-28T07:38:41;9.93;;;2.23;;
71164;SDS011;58859;55.132;-1.586;2024-02-28T07:41:06;8.50;;;2.13;;
71164;SDS011;58859;55.132;-1.586;2024-02-28T07:43:32;5.10;;;2.23;;
71164;SDS011;58859;55.132;-1.586;2024-02-28T07:46:02;4.97;;;2.53;;
71164;SDS011;58859;55.132;-1.586;2024-02-28T07:48:34;8.65;;;2.33;;
71164;SDS011;58859;55.132;-1.586;2024-02-28T07:51:00;14.43;;;2.50;;
71164;SDS011;58859;55.132;-1.586;2024-02-28T07:53:26;7.90;;;1.88;;
71164;SDS011;58859;55.132;-1.586;2024-02-28T07:55:51;11.32;;;2.10;;
71164;SDS011;58859;55.132;-1.586;2024-02-28T07:58:17;12.30;;;2.90;;
71164;SDS011;58859;55.132;-1.586;2024-02-28T08:00:42;13.07;;;2.27;;
71164;SDS011;58859;55.132;-1.586;2024-02-28T08:03:09;9.10;;;1.95;;
71164;SDS011;58859;55.132;-1.586;2024-02-28T08:05:34;10.17;;;2.43;;
71164;SDS011;58859;55.132;-1.586;2024-02-28T08:08:04;11.65;;;3.42;;
71164;SDS011;58859;55.132;-1.586;2024-02-28T08:10:31;9.68;;;1.90;;
71164;SDS011;58859;55.132;-1.586;2024-02-28T08:12:56;12.77;;;2.63;;
71164;SDS011;58859;55.132;-1.586;2024-02-28T08:15:21;11.35;;;2.28;;
71164;SDS011;58859;55.132;-1.586;2024-02-28T08:17:47;12.40;;;3.10;;
71164;SDS011;58859;55.132;-1.586;2024-02-28T08:20:12;16.53;;;2.67;;
71164;SDS011;58859;55.132;-1.586;2024-02-28T08:22:38;15.52;;;2.25;;
71164;SDS011;58859;55.132;-1.586;2024-02-28T08:25:04;9.60;;;2.00;;
71164;SDS011;58859;55.132;-1.586;2024-02-28T08:27:30;15.05;;;2.92;;
71164;SDS011;58859;55.132;-1.586;2024-02-28T08:29:55;11.80;;;2.93;;
71164;SDS011;58859;55.132;-1.586;2024-02-28T08:32:21;12.20;;;3.70;;
71164;SDS011;58859;55.132;-1.586;2024-02-28T08:34:46;11.60;;;2.97;;
71164;SDS011;58859;55.132;-1.586;2024-02-28T08:37:12;17.40;;;2.97;;
71164;SDS011;58859;55.132;-1.586;2024-02-28T08:39:38;11.23;;;3.00;;
71164;SDS011;58859;55.132;-1.586;2024-02-28T08:42:03;13.20;;;2.50;;
71164;SDS011;58859;55.132;-1.586;2024-02-28T08:44:29;7.57;;;2.00;;
71164;SDS011;58859;55.132;-1.586;2024-02-28T08:46:55;15.55;;;2.75;;
71164;SDS011;58859;55.132;-1.586;2024-02-28T08:49:20;6.40;;;1.80;;
71164;SDS011;58859;55.132;-1.586;2024-02-28T08:51:46;10.13;;;2.60;;
71164;SDS011;58859;55.132;-1.586;2024-02-28T08:54:12;10.02;;;2.63;;
71164;SDS011;58859;55.132;-1.586;2024-02-28T08:56:37;9.37;;;3.20;;
71164;SDS011;58859;55.132;-1.586;2024-02-28T08:59:03;15.57;;;3.72;;
71164;SDS011;58859;55.132;-1.586;2024-02-28T09:01:28;11.35;;;3.53;;
71164;SDS011;58859;55.132;-1.586;2024-02-28T09:03:54;15.83;;;3.50;;
71164;SDS011;58859;55.132;-1.586;2024-02-28T09:06:19;20.13;;;3.03;;
71164;SDS011;58859;55.132;-1.586;2024-02-28T09:08:44;10.43;;;3.03;;
71164;SDS011;58859;55.132;-1.586;2024-02-28T09:11:10;13.45;;;2.92;;
71164;SDS011;58859;55.132;-1.586;2024-02-28T09:13:35;14.30;;;3.03;;
71164;SDS011;58859;55.132;-1.586;2024-02-28T09:16:01;12.03;;;2.90;;
71164;SDS011;58859;55.132;-1.586;2024-02-28T09:18:27;11.45;;;3.13;;
71164;SDS011;58859;55.132;-1.586;2024-02-28T09:20:52;9.63;;;3.33;;
71164;SDS011;58859;55.132;-1.586;2024-02-28T09:23:18;16.83;;;3.50;;
71164;SDS011;58859;55.132;-1.586;2024-02-28T09:25:44;19.25;;;4.32;;
71164;SDS011;58859;55.132;-1.586;2024-02-28T09:28:09;14.73;;;3.60;;
71164;SDS011;58859;55.132;-1.586;2024-02-28T09:30:37;9.35;;;2.50;;
71164;SDS011;58859;55.132;-1.586;2024-02-28T09:33:03;18.10;;;3.63;;
71164;SDS011;58859;55.132;-1.586;2024-02-28T09:35:29;13.05;;;3.28;;
71164;SDS011;58859;55.132;-1.586;2024-02-28T09:37:54;11.47;;;3.73;;
71164;SDS011;58859;55.132;-1.586;2024-02-28T09:40:19;11.90;;;3.77;;
71164;SDS011;58859;55.132;-1.586;2024-02-28T09:42:57;8.00;;;3.03;;
71164;SDS011;58859;55.132;-1.586;2024-02-28T09:45:27;15.40;;;4.10;;
71164;SDS011;58859;55.132;-1.586;2024-02-28T09:47:55;9.98;;;2.80;;
71164;SDS011;58859;55.132;-1.586;2024-02-28T09:50:30;12.88;;;3.03;;
71164;SDS011;58859;55.132;-1.586;2024-02-28T09:52:55;12.60;;;3.10;;
71164;SDS011;58859;55.132;-1.586;2024-02-28T09:55:21;14.10;;;3.07;;
71164;SDS011;58859;55.132;-1.586;2024-02-28T09:57:49;7.90;;;3.35;;
71164;SDS011;58859;55.132;-1.586;2024-02-28T10:00:17;12.73;;;3.33;;
71164;SDS011;58859;55.132;-1.586;2024-02-28T10:02:46;13.48;;;4.50;;
71164;SDS011;58859;55.132;-1.586;2024-02-28T10:05:14;10.75;;;3.97;;
71164;SDS011;58859;55.132;-1.586;2024-02-28T10:07:41;10.50;;;3.08;;
71164;SDS011;58859;55.132;-1.586;2024-02-28T10:10:07;12.25;;;4.00;;
71164;SDS011;58859;55.132;-1.586;2024-02-28T10:12:38;14.03;;;3.83;;
71164;SDS011;58859;55.132;-1.586;2024-02-28T10:15:05;10.65;;;3.20;;
71164;SDS011;58859;55.132;-1.586;2024-02-28T10:17:31;8.43;;;3.00;;
71164;SDS011;58859;55.132;-1.586;2024-02-28T10:19:57;16.20;;;3.65;;
71164;SDS011;58859;55.132;-1.586;2024-02-28T10:22:24;12.60;;;4.00;;
71164;SDS011;58859;55.132;-1.586;2024-02-28T10:24:56;10.90;;;3.60;;
71164;SDS011;58859;55.132;-1.586;2024-02-28T10:27:22;12.05;;;4.07;;
71164;SDS011;58859;55.132;-1.586;2024-02-28T10:29:48;15.60;;;4.63;;
71164;SDS011;58859;55.132;-1.586;2024-02-28T10:32:13;9.20;;;3.37;;
71164;SDS011;58859;55.132;-1.586;2024-02-28T10:34:39;11.00;;;3.40;;
71164;SDS011;58859;55.132;-1.586;2024-02-28T10:37:06;12.00;;;3.50;;
71164;SDS011;58859;55.132;-1.586;2024-02-28T10:39:32;11.98;;;4.47;;
71164;SDS011;58859;55.132;-1.586;2024-02-28T10:41:59;14.90;;;3.72;;
71164;SDS011;58859;55.132;-1.586;2024-02-28T10:44:26;13.97;;;3.43;;
71164;SDS011;58859;55.132;-1.586;2024-02-28T10:46:53;8.52;;;3.20;;
71164;SDS011;58859;55.132;-1.586;2024-02-28T10:49:18;12.75;;;3.90;;
71164;SDS011;58859;55.132;-1.586;2024-02-28T10:51:45;16.77;;;4.53;;
71164;SDS011;58859;55.132;-1.586;2024-02-28T10:54:13;16.60;;;4.00;;
71164;SDS011;58859;55.132;-1.586;2024-02-28T10:56:40;11.50;;;4.07;;
71164;SDS011;58859;55.132;-1.586;2024-02-28T10:59:07;11.45;;;3.50;;
71164;SDS011;58859;55.132;-1.586;2024-02-28T11:01:37;15.48;;;4.03;;
71164;SDS011;58859;55.132;-1.586;2024-02-28T11:04:08;13.85;;;3.45;;
71164;SDS011;58859;55.132;-1.586;2024-02-28T11:06:35;14.80;;;4.07;;
71164;SDS011;58859;55.132;-1.586;2024-02-28T11:09:00;15.07;;;3.90;;
71164;SDS011;58859;55.132;-1.586;2024-02-28T11:11:29;8.25;;;3.40;;
71164;SDS011;58859;55.132;-1.586;2024-02-28T11:13:56;11.60;;;3.33;;
71164;SDS011;58859;55.132;-1.586;2024-02-28T11:18:57;10.55;;;2.90;;
71164;SDS011;58859;55.132;-1.586;2024-02-28T11:21:24;11.65;;;3.28;;
71164;SDS011;58859;55.132;-1.586;2024-02-28T11:23:57;12.70;;;3.25;;
71164;SDS011;58859;55.132;-1.586;2024-02-28T11:26:23;9.67;;;2.93;;
71164;SDS011;58859;55.132;-1.586;2024-02-28T11:28:49;9.35;;;3.15;;
71164;SDS011;58859;55.132;-1.586;2024-02-28T11:31:15;9.32;;;2.53;;
71164;SDS011;58859;55.132;-1.586;2024-02-28T11:33:41;18.20;;;3.33;;
71164;SDS011;58859;55.132;-1.586;2024-02-28T11:36:07;11.23;;;2.60;;
71164;SDS011;58859;55.132;-1.586;2024-02-28T11:38:34;6.38;;;2.45;;
71164;SDS011;58859;55.132;-1.586;2024-02-28T11:41:03;11.80;;;3.60;;
71164;SDS011;58859;55.132;-1.586;2024-02-28T11:43:30;17.33;;;3.83;;
71164;SDS011;58859;55.132;-1.586;2024-02-28T11:45:56;10.00;;;3.53;;
71164;SDS011;58859;55.132;-1.586;2024-02-28T11:48:22;13.55;;;4.28;;
71164;SDS011;58859;55.132;-1.586;2024-02-28T11:50:47;18.80;;;3.30;;
71164;SDS011;58859;55.132;-1.586;2024-02-28T11:53:13;11.67;;;3.30;;
71164;SDS011;58859;55.132;-1.586;2024-02-28T11:55:38;10.60;;;3.17;;
71164;SDS011;58859;55.132;-1.586;2024-02-28T11:58:09;13.75;;;3.08;;
71164;SDS011;58859;55.132;-1.586;2024-02-28T12:00:34;14.00;;;3.28;;
71164;SDS011;58859;55.132;-1.586;2024-02-28T12:03:11;12.20;;;3.28;;
71164;SDS011;58859;55.132;-1.586;2024-02-28T12:05:42;15.30;;;3.47;;
71164;SDS011;58859;55.132;-1.586;2024-02-28T12:08:08;13.20;;;3.60;;
71164;SDS011;58859;55.132;-1.586;2024-02-28T12:10:34;12.00;;;2.67;;
71164;SDS011;58859;55.132;-1.586;2024-02-28T12:13:00;8.82;;;2.00;;
71164;SDS011;58859;55.132;-1.586;2024-02-28T12:15:28;7.75;;;2.38;;
71164;SDS011;58859;55.132;-1.586;2024-02-28T12:17:54;9.77;;;2.70;;
71164;SDS011;58859;55.132;-1.586;2024-02-28T12:20:19;9.87;;;2.70;;
71164;SDS011;58859;55.132;-1.586;2024-02-28T12:22:45;12.40;;;2.57;;
71164;SDS011;58859;55.132;-1.586;2024-02-28T12:25:11;11.80;;;2.50;;
71164;SDS011;58859;55.132;-1.586;2024-02-28T12:27:36;10.38;;;2.40;;
71164;SDS011;58859;55.132;-1.586;2024-02-28T12:30:02;10.23;;;2.50;;
71164;SDS011;58859;55.132;-1.586;2024-02-28T12:32:27;8.07;;;2.55;;
71164;SDS011;58859;55.132;-1.586;2024-02-28T12:34:53;9.10;;;2.27;;
71164;SDS011;58859;55.132;-1.586;2024-02-28T12:37:19;11.17;;;2.23;;
71164;SDS011;58859;55.132;-1.586;2024-02-28T12:39:44;13.50;;;2.55;;
71164;SDS011;58859;55.132;-1.586;2024-02-28T12:42:10;10.43;;;2.67;;
71164;SDS011;58859;55.132;-1.586;2024-02-28T12:44:35;14.70;;;3.27;;
71164;SDS011;58859;55.132;-1.586;2024-02-28T12:47:01;11.18;;;3.03;;
71164;SDS011;58859;55.132;-1.586;2024-02-28T12:49:26;18.00;;;3.17;;
71164;SDS011;58859;55.132;-1.586;2024-02-28T12:51:52;10.53;;;2.87;;
71164;SDS011;58859;55.132;-1.586;2024-02-28T12:54:18;15.85;;;2.50;;
71164;SDS011;58859;55.132;-1.586;2024-02-28T12:56:45;12.25;;;2.10;;
71164;SDS011;58859;55.132;-1.586;2024-02-28T12:59:11;13.53;;;3.27;;
71164;SDS011;58859;55.132;-1.586;2024-02-28T13:01:37;12.52;;;2.70;;
71164;SDS011;58859;55.132;-1.586;2024-02-28T13:04:03;10.53;;;2.23;;
71164;SDS011;58859;55.132;-1.586;2024-02-28T13:06:29;7.35;;;2.20;;
71164;SDS011;58859;55.132;-1.586;2024-02-28T13:08:54;10.52;;;2.83;;
71164;SDS011;58859;55.132;-1.586;2024-02-28T13:11:21;14.07;;;2.67;;
71164;SDS011;58859;55.132;-1.586;2024-02-28T13:13:51;12.35;;;2.85;;
71164;SDS011;58859;55.132;-1.586;2024-02-28T13:16:17;15.60;;;2.63;;
71164;SDS011;58859;55.132;-1.586;2024-02-28T13:18:44;14.55;;;2.80;;
71164;SDS011;58859;55.132;-1.586;2024-02-28T13:21:10;8.75;;;2.45;;
71164;SDS011;58859;55.132;-1.586;2024-02-28T13:23:36;6.28;;;2.55;;
71164;SDS011;58859;55.132;-1.586;2024-02-28T13:26:05;8.98;;;2.80;;
71164;SDS011;58859;55.132;-1.586;2024-02-28T13:28:32;12.17;;;2.20;;
71164;SDS011;58859;55.132;-1.586;2024-02-28T13:31:01;6.15;;;2.28;;
71164;SDS011;58859;55.132;-1.586;2024-02-28T13:33:29;6.38;;;2.15;;
71164;SDS011;58859;55.132;-1.586;2024-02-28T13:35:54;10.33;;;2.23;;
71164;SDS011;58859;55.132;-1.586;2024-02-28T13:38:20;11.33;;;2.23;;
71164;SDS011;58859;55.132;-1.586;2024-02-28T13:40:46;7.90;;;2.38;;
71164;SDS011;58859;55.132;-1.586;2024-02-28T13:43:13;11.32;;;2.50;;
71164;SDS011;58859;55.132;-1.586;2024-02-28T13:45:38;5.65;;;1.20;;
71164;SDS011;58859;55.132;-1.586;2024-02-28T13:48:22;4.85;;;1.20;;
71164;SDS011;58859;55.132;-1.586;2024-02-28T13:50:52;5.07;;;1.08;;
71164;SDS011;58859;55.132;-1.586;2024-02-28T13:53:17;2.08;;;0.70;;
71164;SDS011;58859;55.132;-1.586;2024-02-28T13:55:43;1.97;;;0.80;;
71164;SDS011;58859;55.132;-1.586;2024-02-28T13:58:13;5.15;;;1.50;;
71164;SDS011;58859;55.132;-1.586;2024-02-28T14:00:39;1.83;;;0.63;;
71164;SDS011;58859;55.132;-1.586;2024-02-28T14:03:05;5.35;;;1.10;;
71164;SDS011;58859;55.132;-1.586;2024-02-28T14:05:34;5.70;;;1.33;;
71164;SDS011;58859;55.132;-1.586;2024-02-28T14:07:59;5.22;;;1.38;;
71164;SDS011;58859;55.132;-1.586;2024-02-28T14:10:26;4.30;;;1.00;;
71164;SDS011;58859;55.132;-1.586;2024-02-28T14:12:51;4.75;;;0.98;;
71164;SDS011;58859;55.132;-1.586;2024-02-28T14:15:20;6.05;;;1.85;;
71164;SDS011;58859;55.132;-1.586;2024-02-28T14:17:47;5.93;;;1.17;;
71164;SDS011;58859;55.132;-1.586;2024-02-28T14:20:12;3.92;;;1.05;;
71164;SDS011;58859;55.132;-1.586;2024-02-28T14:22:38;7.60;;;2.23;;